createdAt,value
2018-12-03T00:02:06.663Z,5.17
2018-12-03T00:04:35.910Z,7.57
2018-12-03T00:07:05.192Z,4.60
2018-12-03T00:09:34.591Z,5.50
2018-12-03T00:12:03.893Z,7.80
2018-12-03T00:14:33.304Z,5.23
2018-12-03T00:17:02.857Z,5.27
2018-12-03T00:19:32.125Z,6.00
2018-12-03T00:22:01.441Z,5.47
2018-12-03T00:24:30.865Z,8.57
2018-12-03T00:27:00.145Z,10.67
2018-12-03T00:29:29.420Z,6.83
2018-12-03T00:31:59.149Z,10.70
2018-12-03T00:34:28.434Z,8.17
2018-12-03T00:36:57.751Z,11.00
2018-12-03T00:39:27.040Z,8.97
2018-12-03T00:41:56.434Z,13.63
2018-12-03T00:44:25.767Z,12.23
2018-12-03T00:46:55.136Z,17.50
2018-12-03T00:49:24.427Z,17.70
2018-12-03T00:51:53.737Z,13.20
2018-12-03T00:54:23.393Z,19.50
2018-12-03T00:56:53.095Z,17.40
2018-12-03T00:59:22.374Z,16.13
2018-12-03T01:01:52.382Z,24.20
2018-12-03T01:04:21.739Z,25.43
2018-12-03T01:06:50.986Z,19.03
2018-12-03T01:09:20.334Z,21.83
2018-12-03T01:11:49.605Z,17.77
2018-12-03T01:14:18.883Z,28.50
2018-12-03T01:16:48.387Z,20.83
2018-12-03T01:19:18.880Z,24.13
2018-12-03T01:21:48.739Z,20.73
2018-12-03T01:24:18.032Z,18.43
2018-12-03T01:26:47.302Z,17.57
2018-12-03T01:29:16.577Z,15.20
2018-12-03T01:31:45.972Z,19.17
2018-12-03T01:34:15.438Z,16.63
2018-12-03T01:36:49.101Z,21.10
2018-12-03T01:39:18.481Z,16.07
2018-12-03T01:41:47.937Z,18.50
2018-12-03T01:44:17.528Z,15.90
2018-12-03T01:46:46.926Z,20.13
2018-12-03T01:49:16.369Z,23.27
2018-12-03T01:51:46.087Z,18.83
2018-12-03T01:54:15.431Z,26.13
2018-12-03T01:56:44.790Z,17.47
2018-12-03T01:59:14.211Z,18.47
2018-12-03T02:01:43.621Z,13.23
2018-12-03T02:04:13.200Z,24.13
2018-12-03T02:06:42.891Z,24.87
2018-12-03T02:09:12.326Z,17.60
2018-12-03T02:11:41.837Z,15.80
2018-12-03T02:14:11.378Z,14.80
2018-12-03T02:16:40.926Z,24.80
2018-12-03T02:19:10.453Z,19.13
2018-12-03T02:21:40.309Z,14.90
2018-12-03T02:24:09.717Z,14.73
2018-12-03T02:26:39.221Z,23.30
2018-12-03T02:29:08.708Z,27.63
2018-12-03T02:31:38.184Z,31.07
2018-12-03T02:34:07.570Z,25.87
2018-12-03T02:36:37.110Z,20.33
2018-12-03T02:39:09.235Z,18.40
2018-12-03T02:41:39.041Z,22.23
2018-12-03T02:44:08.492Z,29.00
2018-12-03T02:46:37.932Z,17.80
2018-12-03T02:49:07.473Z,31.00
2018-12-03T02:51:36.912Z,19.50
2018-12-03T02:54:06.564Z,25.20
2018-12-03T02:56:36.006Z,23.00
2018-12-03T02:59:05.824Z,22.37
2018-12-03T03:01:35.314Z,23.10
2018-12-03T03:04:05.217Z,26.13
2018-12-03T03:06:34.732Z,24.10
2018-12-03T03:09:05.092Z,25.03
2018-12-03T03:11:34.493Z,31.93
2018-12-03T03:14:03.937Z,23.80
2018-12-03T03:16:33.506Z,24.93
2018-12-03T03:19:03.088Z,22.70
2018-12-03T03:21:32.500Z,18.10
2018-12-03T03:24:02.102Z,17.77
2018-12-03T03:26:32.144Z,22.83
2018-12-03T03:29:01.646Z,21.17
2018-12-03T03:31:31.102Z,18.67
2018-12-03T03:34:00.775Z,26.23
2018-12-03T03:36:30.367Z,19.47
2018-12-03T03:38:59.775Z,21.50
2018-12-03T03:41:29.246Z,17.93
2018-12-03T03:43:58.756Z,21.30
2018-12-03T03:46:28.297Z,22.73
2018-12-03T03:48:58.012Z,22.13
2018-12-03T03:51:27.424Z,20.80
2018-12-03T03:53:56.923Z,19.43
2018-12-03T03:56:27.026Z,26.40
2018-12-03T03:58:56.460Z,19.63
2018-12-03T04:01:26.051Z,27.07
2018-12-03T04:03:55.502Z,25.23
2018-12-03T04:06:31.473Z,22.47
2018-12-03T04:09:01.220Z,18.70
2018-12-03T04:11:30.694Z,26.27
2018-12-03T04:14:00.084Z,24.23
2018-12-03T04:16:29.652Z,24.07
2018-12-03T04:18:58.985Z,24.47
2018-12-03T04:21:28.570Z,20.27
2018-12-03T04:23:58.270Z,21.77
2018-12-03T04:26:27.705Z,24.10
2018-12-03T04:28:57.390Z,23.17
2018-12-03T04:31:27.543Z,32.73
2018-12-03T04:33:57.105Z,23.30
2018-12-03T04:36:26.472Z,25.80
2018-12-03T04:38:55.951Z,23.50
2018-12-03T04:41:25.614Z,26.80
2018-12-03T04:43:55.241Z,27.93
2018-12-03T04:46:24.776Z,26.47
2018-12-03T04:48:54.166Z,24.40
2018-12-03T04:51:23.440Z,21.87
2018-12-03T04:53:53.336Z,18.70
2018-12-03T04:56:22.837Z,21.57
2018-12-03T04:58:52.623Z,16.10
2018-12-03T05:01:22.073Z,18.53
2018-12-03T05:03:51.368Z,25.80
2018-12-03T05:06:20.771Z,16.33
2018-12-03T05:08:50.182Z,21.77
2018-12-03T05:11:19.908Z,19.90
2018-12-03T05:13:49.338Z,22.03
2018-12-03T05:16:19.132Z,15.63
2018-12-03T05:18:48.650Z,16.90
2018-12-03T05:21:18.246Z,17.10
2018-12-03T05:23:47.864Z,22.27
2018-12-03T05:26:17.212Z,17.33
2018-12-03T05:28:46.616Z,18.20
2018-12-03T05:31:16.084Z,15.63
2018-12-03T05:33:45.449Z,14.50
2018-12-03T05:36:14.884Z,18.80
2018-12-03T05:38:44.638Z,27.13
2018-12-03T05:41:14.179Z,18.10
2018-12-03T05:43:43.538Z,19.40
2018-12-03T05:46:13.080Z,21.53
2018-12-03T05:48:42.488Z,19.30
2018-12-03T05:51:11.825Z,21.27
2018-12-03T05:53:41.293Z,24.17
2018-12-03T05:56:10.607Z,24.60
2018-12-03T05:58:40.103Z,26.77
2018-12-03T06:01:09.813Z,25.00
2018-12-03T06:03:39.160Z,22.83
2018-12-03T06:06:08.425Z,20.83
2018-12-03T06:08:37.745Z,23.03
2018-12-03T06:11:06.968Z,21.57
2018-12-03T06:13:36.237Z,28.13
2018-12-03T06:16:05.546Z,19.73
2018-12-03T06:18:41.431Z,24.07
2018-12-03T06:21:11.103Z,22.47
2018-12-03T06:23:40.381Z,22.17
2018-12-03T06:26:09.665Z,20.43
2018-12-03T06:28:38.972Z,17.23
2018-12-03T06:31:08.271Z,24.43
2018-12-03T06:33:37.522Z,20.17
2018-12-03T06:36:06.865Z,21.10
2018-12-03T06:38:36.159Z,22.87
2018-12-03T06:41:05.570Z,23.93
2018-12-03T06:43:35.145Z,25.60
2018-12-03T06:46:04.479Z,24.17
2018-12-03T06:48:33.739Z,22.50
2018-12-03T06:51:03.042Z,20.80
2018-12-03T06:53:32.345Z,22.40
2018-12-03T06:56:01.657Z,23.03
2018-12-03T06:58:30.974Z,20.17
2018-12-03T07:01:00.273Z,23.17
2018-12-03T07:03:29.578Z,19.20
2018-12-03T07:05:59.329Z,22.13
2018-12-03T07:08:28.615Z,23.27
2018-12-03T07:10:58.008Z,23.60
2018-12-03T07:13:27.304Z,20.83
2018-12-03T07:15:57.884Z,24.30
2018-12-03T07:18:27.461Z,19.77
2018-12-03T07:20:56.749Z,19.17
2018-12-03T07:23:25.986Z,20.73
2018-12-03T07:25:55.249Z,18.83
2018-12-03T07:28:24.838Z,21.83
2018-12-03T07:30:54.128Z,20.77
2018-12-03T07:33:23.405Z,17.10
2018-12-03T07:35:52.769Z,14.63
2018-12-03T07:38:22.046Z,13.93
2018-12-03T07:40:51.330Z,12.60
2018-12-03T07:43:20.619Z,13.53
2018-12-03T07:45:49.904Z,13.47
2018-12-03T07:48:19.190Z,16.57
2018-12-03T07:50:48.961Z,13.03
2018-12-03T07:53:18.259Z,26.20
2018-12-03T07:55:47.535Z,16.80
2018-12-03T07:58:20.748Z,13.60
2018-12-03T08:00:52.997Z,17.67
2018-12-03T08:03:22.702Z,11.97
2018-12-03T08:05:51.963Z,18.40
2018-12-03T08:08:21.286Z,13.50
2018-12-03T08:10:54.420Z,14.60
2018-12-03T08:13:23.681Z,14.10
2018-12-03T08:15:53.363Z,14.87
2018-12-03T08:18:24.454Z,21.93
2018-12-03T08:21:00.576Z,16.93
2018-12-03T08:23:40.882Z,13.90
2018-12-03T08:26:11.288Z,18.83
2018-12-03T08:28:40.632Z,14.37
2018-12-03T08:31:10.182Z,16.57
2018-12-03T08:33:39.506Z,16.30
2018-12-03T08:36:09.343Z,19.40
2018-12-03T08:38:39.771Z,14.00
2018-12-03T08:41:09.145Z,12.00
2018-12-03T08:43:38.405Z,13.93
2018-12-03T08:46:10.005Z,10.83
2018-12-03T08:48:41.283Z,12.47
2018-12-03T08:51:12.176Z,12.67
2018-12-03T08:53:43.647Z,8.90
2018-12-03T08:56:12.918Z,15.23
2018-12-03T08:58:42.414Z,13.00
2018-12-03T09:01:17.777Z,15.67
2018-12-03T09:04:00.137Z,16.70
2018-12-03T09:06:29.447Z,14.43
2018-12-03T09:08:58.814Z,13.87
2018-12-03T09:11:28.252Z,9.60
2018-12-03T09:13:57.504Z,15.33
2018-12-03T09:16:26.752Z,8.03
2018-12-03T09:18:56.021Z,18.60
2018-12-03T09:21:25.308Z,9.40
2018-12-03T09:23:59.120Z,9.07
2018-12-03T09:26:28.375Z,15.83
2018-12-03T09:28:57.624Z,14.27
2018-12-03T09:31:27.261Z,10.10
2018-12-03T09:33:58.667Z,12.30
2018-12-03T09:36:29.527Z,11.83
2018-12-03T09:39:19.141Z,18.60
2018-12-03T09:41:49.631Z,22.27
2018-12-03T09:44:18.888Z,10.07
2018-12-03T09:46:48.184Z,19.87
2018-12-03T09:49:17.929Z,16.97
2018-12-03T09:51:47.202Z,12.33
2018-12-03T09:54:16.462Z,18.63
2018-12-03T09:56:52.436Z,16.13
2018-12-03T09:59:24.158Z,20.27
2018-12-03T10:01:57.773Z,23.33
2018-12-03T10:04:45.905Z,22.90
2018-12-03T10:07:21.345Z,17.53
2018-12-03T10:09:50.627Z,19.60
2018-12-03T10:12:19.909Z,13.17
2018-12-03T10:14:49.207Z,24.47
2018-12-03T10:17:18.473Z,23.37
2018-12-03T10:19:50.830Z,21.90
2018-12-03T10:22:20.077Z,19.27
2018-12-03T10:24:49.351Z,24.07
2018-12-03T10:27:19.204Z,20.40
2018-12-03T10:29:48.513Z,21.67
2018-12-03T10:32:19.970Z,18.23
2018-12-03T10:34:49.233Z,25.00
2018-12-03T10:37:21.385Z,26.10
2018-12-03T10:39:51.021Z,16.40
2018-12-03T10:42:20.361Z,23.00
2018-12-03T10:44:50.706Z,21.77
2018-12-03T10:47:19.925Z,35.03
2018-12-03T10:49:49.202Z,20.20
2018-12-03T10:52:22.291Z,30.27
2018-12-03T10:54:51.619Z,25.90
2018-12-03T10:57:22.008Z,22.00
2018-12-03T11:03:01.441Z,22.23
2018-12-03T11:05:37.735Z,20.70
2018-12-03T11:08:07.009Z,21.53
2018-12-03T11:10:39.473Z,27.40
2018-12-03T11:13:08.948Z,23.03
2018-12-03T11:15:38.456Z,14.43
2018-12-03T11:18:08.860Z,20.83
2018-12-03T11:20:38.184Z,22.50
2018-12-03T11:23:09.006Z,22.67
2018-12-03T11:25:42.048Z,18.40
2018-12-03T11:28:14.933Z,38.00
2018-12-03T11:30:56.218Z,26.57
2018-12-03T11:33:28.293Z,21.93
2018-12-03T11:36:00.088Z,21.70
2018-12-03T11:38:57.795Z,21.13
2018-12-03T11:41:27.134Z,14.20
2018-12-03T11:43:56.424Z,15.40
2018-12-03T11:46:25.864Z,22.07
2018-12-03T11:48:55.147Z,26.40
2018-12-03T11:51:24.392Z,20.53
2018-12-03T11:53:53.776Z,28.73
2018-12-03T11:56:23.197Z,21.83
2018-12-03T11:58:52.469Z,12.40
2018-12-03T12:01:21.765Z,18.40
2018-12-03T12:03:51.514Z,26.50
2018-12-03T12:06:20.764Z,26.73
2018-12-03T12:08:50.050Z,17.90
2018-12-03T12:11:19.363Z,28.87
2018-12-03T12:13:48.642Z,24.53
2018-12-03T12:16:17.872Z,20.97
2018-12-03T12:18:47.657Z,22.30
2018-12-03T12:21:16.954Z,19.17
2018-12-03T12:23:46.259Z,22.23
2018-12-03T12:26:15.565Z,22.00
2018-12-03T12:28:44.843Z,33.57
2018-12-03T12:31:14.285Z,22.43
2018-12-03T12:33:43.561Z,22.80
2018-12-03T12:36:12.862Z,23.10
2018-12-03T12:38:42.194Z,26.30
2018-12-03T12:41:11.832Z,30.20
2018-12-03T12:43:41.185Z,20.83
2018-12-03T12:46:15.375Z,19.57
2018-12-03T12:48:44.670Z,36.10
2018-12-03T12:51:13.941Z,30.00
2018-12-03T12:53:43.248Z,21.83
2018-12-03T12:56:12.510Z,30.33
2018-12-03T12:58:41.769Z,29.13
2018-12-03T13:01:11.518Z,27.30
2018-12-03T13:03:40.815Z,23.00
2018-12-03T13:06:10.497Z,21.47
2018-12-03T13:08:39.814Z,35.90
2018-12-03T13:11:09.509Z,25.83
2018-12-03T13:13:38.845Z,35.50
2018-12-03T13:16:08.278Z,26.93
2018-12-03T13:18:37.545Z,26.30
2018-12-03T13:21:06.944Z,26.67
2018-12-03T13:23:36.580Z,33.37
2018-12-03T13:26:07.568Z,26.23
2018-12-03T13:28:36.872Z,26.80
2018-12-03T13:31:06.254Z,35.90
2018-12-03T13:33:35.547Z,29.63
2018-12-03T13:36:04.858Z,33.37
2018-12-03T13:38:34.168Z,32.10
2018-12-03T13:41:03.464Z,29.80
2018-12-03T13:43:32.867Z,31.20
2018-12-03T13:46:02.253Z,21.73
2018-12-03T13:48:31.604Z,28.40
2018-12-03T13:51:00.904Z,24.10
2018-12-03T13:53:30.198Z,30.57
2018-12-03T13:55:59.717Z,24.70
2018-12-03T13:58:28.996Z,35.53
2018-12-03T14:00:58.252Z,26.10
2018-12-03T14:03:31.632Z,25.90
2018-12-03T14:08:49.454Z,26.67
2018-12-03T14:12:29.966Z,34.77
2018-12-03T14:18:17.031Z,33.60
2018-12-03T14:20:49.958Z,37.13
2018-12-03T14:23:26.096Z,26.07
2018-12-03T14:25:55.430Z,31.87
2018-12-03T14:28:24.752Z,34.30
2018-12-03T14:30:54.089Z,39.97
2018-12-03T14:33:23.493Z,33.07
2018-12-03T14:35:52.756Z,26.50
2018-12-03T14:38:22.052Z,43.57
2018-12-03T14:40:51.413Z,31.73
2018-12-03T14:43:20.785Z,32.40
2018-12-03T14:45:50.264Z,32.27
2018-12-03T14:48:19.571Z,40.10
2018-12-03T14:50:48.889Z,35.40
2018-12-03T14:53:18.215Z,44.20
2018-12-03T14:55:47.498Z,44.13
2018-12-03T14:58:16.964Z,44.53
2018-12-03T15:00:46.266Z,24.80
2018-12-03T15:03:15.510Z,36.63
2018-12-03T15:05:44.796Z,37.17
2018-12-03T15:08:14.246Z,26.13
2018-12-03T15:10:43.504Z,31.03
2018-12-03T15:13:12.792Z,38.43
2018-12-03T15:15:42.157Z,36.73
2018-12-03T15:18:11.424Z,40.07
2018-12-03T15:20:41.040Z,44.60
2018-12-03T15:23:10.390Z,36.53
2018-12-03T15:25:39.709Z,40.10
2018-12-03T15:28:09.004Z,36.53
2018-12-03T15:30:38.786Z,38.20
2018-12-03T15:33:08.112Z,30.73
2018-12-03T15:35:37.666Z,36.60
2018-12-03T15:38:06.960Z,27.40
2018-12-03T15:40:36.321Z,46.73
2018-12-03T15:43:05.621Z,28.87
2018-12-03T15:45:35.110Z,36.27
2018-12-03T15:48:04.393Z,38.13
2018-12-03T15:50:33.876Z,30.40
2018-12-03T15:53:03.546Z,31.27
2018-12-03T15:55:32.949Z,50.87
2018-12-03T15:58:02.212Z,34.67
2018-12-03T16:00:31.515Z,34.37
2018-12-03T16:03:00.829Z,41.10
2018-12-03T16:05:30.117Z,34.47
2018-12-03T16:07:59.486Z,43.93
2018-12-03T16:10:28.816Z,33.73
2018-12-03T16:12:58.197Z,36.27
2018-12-03T16:15:27.910Z,35.30
2018-12-03T16:17:57.179Z,46.20
2018-12-03T16:20:26.543Z,34.70
2018-12-03T16:22:55.934Z,28.07
2018-12-03T16:25:25.352Z,52.40
2018-12-03T16:27:54.885Z,45.83
2018-12-03T16:30:25.435Z,26.67
2018-12-03T16:32:54.910Z,38.67
2018-12-03T16:35:24.182Z,59.37
2018-12-03T16:37:53.564Z,46.30
2018-12-03T16:40:22.896Z,42.27
2018-12-03T16:42:52.240Z,47.70
2018-12-03T16:45:21.590Z,40.20
2018-12-03T16:47:50.913Z,33.87
2018-12-03T16:50:20.271Z,45.93
2018-12-03T16:52:49.687Z,41.60
2018-12-03T16:55:18.945Z,40.50
2018-12-03T16:57:48.288Z,43.53
2018-12-03T17:00:17.924Z,29.83
2018-12-03T17:02:47.199Z,35.67
2018-12-03T17:05:16.450Z,46.07
2018-12-03T17:07:45.801Z,27.30
2018-12-03T17:10:18.049Z,34.73
2018-12-03T17:12:48.276Z,37.13
2018-12-03T17:15:17.569Z,43.77
2018-12-03T17:17:46.874Z,49.00
2018-12-03T17:20:24.008Z,44.37
2018-12-03T17:23:06.776Z,21.40
2018-12-03T17:25:36.164Z,34.07
2018-12-03T17:28:05.508Z,39.83
2018-12-03T17:30:34.829Z,34.70
2018-12-03T17:33:04.171Z,41.53
2018-12-03T17:35:33.584Z,33.80
2018-12-03T17:38:02.892Z,29.93
2018-12-03T17:40:32.635Z,43.70
2018-12-03T17:43:01.986Z,41.97
2018-12-03T17:45:31.290Z,41.50
2018-12-03T17:48:00.611Z,27.80
2018-12-03T17:50:29.885Z,34.27
2018-12-03T17:52:59.217Z,50.10
2018-12-03T17:55:28.713Z,40.93
2018-12-03T17:57:58.961Z,48.07
2018-12-03T18:00:27.446Z,35.00
2018-12-03T18:02:56.898Z,39.90
2018-12-03T18:05:26.212Z,26.17
2018-12-03T18:07:55.650Z,31.57
2018-12-03T18:10:24.952Z,41.03
2018-12-03T18:12:54.226Z,44.43
2018-12-03T18:15:23.578Z,42.87
2018-12-03T18:17:53.004Z,40.63
2018-12-03T18:20:22.288Z,44.63
2018-12-03T18:22:54.550Z,38.97
2018-12-03T18:25:24.158Z,39.97
2018-12-03T18:27:53.431Z,35.57
2018-12-03T18:30:22.753Z,39.53
2018-12-03T18:32:52.112Z,43.00
2018-12-03T18:35:21.480Z,45.90
2018-12-03T18:37:50.796Z,28.07
2018-12-03T18:40:20.133Z,30.83
2018-12-03T18:42:49.429Z,34.17
2018-12-03T18:45:18.765Z,38.97
2018-12-03T18:47:48.191Z,37.17
2018-12-03T18:50:22.341Z,37.73
2018-12-03T18:52:51.880Z,48.37
2018-12-03T18:55:21.207Z,49.10
2018-12-03T18:57:57.078Z,28.00
2018-12-03T19:00:26.564Z,35.00
2018-12-03T19:02:55.874Z,22.97
2018-12-03T19:05:25.626Z,31.17
2018-12-03T19:07:55.027Z,26.97
2018-12-03T19:10:24.324Z,35.97
2018-12-03T19:12:53.661Z,31.17
2018-12-03T19:15:23.199Z,51.03
2018-12-03T19:17:52.510Z,48.10
2018-12-03T19:20:21.862Z,30.27
2018-12-03T19:22:51.191Z,44.27
2018-12-03T19:25:20.711Z,45.53
2018-12-03T19:27:50.114Z,36.87
2018-12-03T19:30:19.492Z,36.73
2018-12-03T19:32:48.805Z,37.17
2018-12-03T19:35:18.141Z,33.97
2018-12-03T19:37:47.524Z,38.03
2018-12-03T19:40:16.817Z,25.93
2018-12-03T19:42:46.184Z,29.20
2018-12-03T19:45:15.505Z,38.77
2018-12-03T19:47:44.826Z,28.20
2018-12-03T19:50:14.318Z,43.93
2018-12-03T19:52:45.592Z,40.10
2018-12-03T19:55:16.353Z,33.27
2018-12-03T19:57:50.311Z,40.53
2018-12-03T20:00:19.645Z,29.23
2018-12-03T20:02:49.040Z,28.00
2018-12-03T20:05:19.351Z,35.77
2018-12-03T20:07:49.617Z,38.37
2018-12-03T20:10:19.053Z,36.20
2018-12-03T20:12:48.407Z,42.60
2018-12-03T20:15:18.047Z,42.67
2018-12-03T20:17:47.526Z,30.93
2018-12-03T20:20:24.694Z,32.87
2018-12-03T20:23:07.696Z,37.73
2018-12-03T20:25:52.622Z,30.10
2018-12-03T20:28:34.174Z,30.27
2018-12-03T20:32:29.260Z,46.30
2018-12-03T20:35:24.247Z,26.77
2018-12-03T20:38:13.137Z,38.73
2018-12-03T20:40:59.372Z,49.03
2018-12-03T20:43:31.873Z,33.20
2018-12-03T20:47:18.784Z,29.90
2018-12-03T20:51:01.147Z,28.83
2018-12-03T20:53:41.746Z,33.43
2018-12-03T20:56:11.412Z,28.47
2018-12-03T20:58:40.807Z,32.57
2018-12-03T21:01:10.201Z,39.63
2018-12-03T21:03:39.986Z,35.73
2018-12-03T21:06:09.329Z,29.90
2018-12-03T21:08:39.245Z,30.13
2018-12-03T21:11:08.685Z,70.77
2018-12-03T21:13:38.015Z,49.13
2018-12-03T21:16:07.387Z,32.97
2018-12-03T21:18:36.927Z,36.90
2018-12-03T21:21:09.019Z,33.43
2018-12-03T21:24:09.751Z,41.53
2018-12-03T21:26:38.088Z,41.27
2018-12-03T21:29:06.581Z,35.57
2018-12-03T21:31:35.126Z,34.20
2018-12-03T21:34:03.525Z,40.73
2018-12-03T21:36:31.906Z,41.40
2018-12-03T21:39:00.244Z,45.37
2018-12-03T21:41:28.663Z,40.20
2018-12-03T21:43:57.156Z,33.40
2018-12-03T21:46:25.823Z,32.20
2018-12-03T21:48:54.180Z,43.00
2018-12-03T21:51:22.551Z,38.33
2018-12-03T21:53:50.872Z,32.53
2018-12-03T21:56:19.250Z,25.43
2018-12-03T21:58:47.620Z,43.17
2018-12-03T22:01:16.122Z,19.70
2018-12-03T22:03:44.631Z,24.93
2018-12-03T22:06:12.983Z,23.97
2018-12-03T22:08:42.334Z,31.37
2018-12-03T22:11:10.701Z,39.30
2018-12-03T22:13:39.092Z,21.37
2018-12-03T22:16:07.535Z,24.43
2018-12-03T22:18:35.953Z,27.43
2018-12-03T22:21:04.318Z,21.83
2018-12-03T22:23:32.769Z,21.90
2018-12-03T22:26:01.150Z,22.97
2018-12-03T22:28:29.526Z,21.83
2018-12-03T22:30:58.157Z,18.60
2018-12-03T22:33:26.532Z,30.77
2018-12-03T22:35:54.842Z,21.83
2018-12-03T22:38:23.283Z,27.40
2018-12-03T22:40:51.600Z,29.70
2018-12-03T22:43:19.908Z,16.33
2018-12-03T22:45:48.271Z,11.57
2018-12-03T22:48:16.631Z,6.57
2018-12-03T22:50:44.953Z,12.60
2018-12-03T22:53:13.374Z,6.77
2018-12-03T22:55:41.682Z,5.50
2018-12-03T22:58:09.992Z,8.70
2018-12-03T23:00:38.593Z,10.07
2018-12-03T23:03:06.921Z,12.93
2018-12-03T23:05:35.386Z,11.77
2018-12-03T23:08:03.733Z,6.57
2018-12-03T23:10:32.466Z,14.30
2018-12-03T23:13:00.794Z,13.27
2018-12-03T23:15:29.150Z,12.73
2018-12-03T23:17:57.486Z,10.37
2018-12-03T23:20:25.785Z,9.97
2018-12-03T23:22:54.086Z,7.03
2018-12-03T23:25:22.417Z,19.23
2018-12-03T23:27:50.719Z,16.40
2018-12-03T23:30:19.059Z,12.60
2018-12-03T23:32:47.423Z,8.93
2018-12-03T23:35:15.808Z,13.30
2018-12-03T23:37:44.276Z,12.20
2018-12-03T23:40:12.564Z,5.37
2018-12-03T23:42:40.946Z,16.20
2018-12-03T23:45:09.300Z,10.17
2018-12-03T23:47:37.597Z,5.93
2018-12-03T23:50:06.371Z,3.03
2018-12-03T23:52:34.688Z,3.63
2018-12-03T23:55:02.980Z,7.93
2018-12-03T23:57:31.317Z,6.07
2018-12-03T23:59:59.911Z,8.10
